Hohenems-Dornbirn Airport


Codes: LOIH/HOH
Name: Hohenems-Dornbirn Airport
City: Hohenems / Dornbirn
Country: Austria
Elevation: 1352 ft.
Website:
Wikipedia:

Photos at Hohenems-Dornbirn Airport


   Photos courtesy of SpottingLog. You can add your own sightings and photos by signing up for a free trial today.



No photos found.

Weather at Hohenems-Dornbirn Airport


Time (UTC)DescriptionTempratureWindCloud coverageVisibilityPressureHumidity
19-Apr-2024 03:00Broken Clouds4°C4 mph, S75%10000m1020hPa92%
19-Apr-2024 06:00Broken Clouds3°C4 mph, S83%10000m1021hPa90%
19-Apr-2024 09:00Overcast Clouds6°C7 mph, SW92%10000m1019hPa78%
19-Apr-2024 12:00Light Rain8°C9 mph, S100%10000m1016hPa63%
19-Apr-2024 15:00Light Rain6°C7 mph, SW100%8021m1015hPa89%
19-Apr-2024 18:00Moderate Rain5°C7 mph, SW100%659m1013hPa98%
19-Apr-2024 21:00Moderate Rain5°C9 mph, N100%0m1014hPa99%
20-Apr-2024 00:00Moderate Rain4°C7 mph, N100%0m1015hPa99%
20-Apr-2024 03:00Snow3°C4 mph, N99%0m1017hPa97%
20-Apr-2024 06:00Snow3°C2 mph, NW100%194m1019hPa93%
20-Apr-2024 09:00Snow3°C4 mph, W100%56m1021hPa98%
20-Apr-2024 12:00Snow4°C4 mph, NW100%260m1021hPa100%
20-Apr-2024 15:00Snow4°C4 mph, N97%0m1021hPa101%
20-Apr-2024 18:00Snow3°C2 mph, S99%1596m1022hPa98%
20-Apr-2024 21:00Light Snow3°C0 mph, S100%1001m1023hPa97%
21-Apr-2024 00:00Overcast Clouds2°C2 mph, SE100%10000m1022hPa96%
21-Apr-2024 03:00Light Snow0°C2 mph, E100%10000m1023hPa95%
21-Apr-2024 06:00Light Rain1°C2 mph, N100%0m1023hPa96%
21-Apr-2024 09:00Light Rain4°C4 mph, N94%10000m1023hPa92%
21-Apr-2024 12:00Light Rain5°C7 mph, NE92%10000m1022hPa86%
21-Apr-2024 15:00Light Rain6°C7 mph, NE80%10000m1021hPa83%
21-Apr-2024 18:00Broken Clouds2°C4 mph, E61%10000m1022hPa91%
21-Apr-2024 21:00Scattered Clouds-2°C4 mph, SE49%10000m1024hPa94%
22-Apr-2024 00:00Broken Clouds-3°C4 mph, SE58%10000m1025hPa93%
22-Apr-2024 03:00Broken Clouds-4°C4 mph, SE60%10000m1026hPa92%
22-Apr-2024 06:00Scattered Clouds-2°C2 mph, S42%10000m1025hPa86%
22-Apr-2024 09:00Few Clouds4°C2 mph, N21%10000m1023hPa78%
22-Apr-2024 12:00Light Rain7°C2 mph, NE57%10000m1022hPa70%
22-Apr-2024 15:00Light Rain7°C4 mph, E100%10000m1020hPa72%
22-Apr-2024 18:00Light Rain3°C4 mph, SE91%10000m1020hPa88%
22-Apr-2024 21:00Overcast Clouds-0°C4 mph, SE99%10000m1022hPa94%
23-Apr-2024 00:00Overcast Clouds-0°C4 mph, SE100%10000m1021hPa90%
23-Apr-2024 03:00Overcast Clouds1°C2 mph, S100%10000m1019hPa89%
23-Apr-2024 06:00Overcast Clouds2°C2 mph, S100%10000m1018hPa87%
23-Apr-2024 09:00Overcast Clouds5°C2 mph, NW100%10000m1015hPa83%
23-Apr-2024 12:00Light Rain7°C4 mph, N100%10000m1013hPa75%
23-Apr-2024 15:00Light Rain7°C4 mph, NE100%10000m1011hPa81%
23-Apr-2024 18:00Light Rain5°C0 mph, E100%10000m1011hPa93%
23-Apr-2024 21:00Overcast Clouds3°C2 mph, SE100%10000m1012hPa97%
24-Apr-2024 00:00Light Rain4°C2 mph, N100%0m1011hPa99%